sensor_id;sensor_type;location;lat;lon;timestamp;P1;durP1;ratioP1;P2;durP2;ratioP2
23119;SDS011;11729;50.836;4.330;2024-03-25T00:01:26;21.48;;;14.23;;
23119;SDS011;11729;50.836;4.330;2024-03-25T00:03:52;17.88;;;14.00;;
23119;SDS011;11729;50.836;4.330;2024-03-25T00:06:18;18.33;;;14.02;;
23119;SDS011;11729;50.836;4.330;2024-03-25T00:08:44;21.42;;;13.98;;
23119;SDS011;11729;50.836;4.330;2024-03-25T00:11:10;20.33;;;14.15;;
23119;SDS011;11729;50.836;4.330;2024-03-25T00:13:35;20.08;;;13.82;;
23119;SDS011;11729;50.836;4.330;2024-03-25T00:16:01;20.05;;;13.98;;
23119;SDS011;11729;50.836;4.330;2024-03-25T00:18:27;17.98;;;13.77;;
23119;SDS011;11729;50.836;4.330;2024-03-25T00:20:52;17.98;;;13.80;;
23119;SDS011;11729;50.836;4.330;2024-03-25T00:23:18;21.08;;;14.27;;
23119;SDS011;11729;50.836;4.330;2024-03-25T00:25:44;19.95;;;14.30;;
23119;SDS011;11729;50.836;4.330;2024-03-25T00:28:09;19.05;;;13.65;;
23119;SDS011;11729;50.836;4.330;2024-03-25T00:30:35;22.08;;;13.73;;
23119;SDS011;11729;50.836;4.330;2024-03-25T00:33:00;17.75;;;13.88;;
23119;SDS011;11729;50.836;4.330;2024-03-25T00:35:26;20.13;;;14.13;;
23119;SDS011;11729;50.836;4.330;2024-03-25T00:37:53;19.45;;;13.73;;
23119;SDS011;11729;50.836;4.330;2024-03-25T00:40:20;20.50;;;13.98;;
23119;SDS011;11729;50.836;4.330;2024-03-25T00:42:46;18.42;;;14.40;;
23119;SDS011;11729;50.836;4.330;2024-03-25T00:45:12;19.77;;;14.13;;
23119;SDS011;11729;50.836;4.330;2024-03-25T00:47:38;17.85;;;14.50;;
23119;SDS011;11729;50.836;4.330;2024-03-25T00:50:04;21.55;;;14.75;;
23119;SDS011;11729;50.836;4.330;2024-03-25T00:52:30;21.75;;;14.95;;
23119;SDS011;11729;50.836;4.330;2024-03-25T00:54:55;22.88;;;15.40;;
23119;SDS011;11729;50.836;4.330;2024-03-25T00:57:21;23.83;;;14.65;;
23119;SDS011;11729;50.836;4.330;2024-03-25T00:59:47;20.77;;;15.23;;
23119;SDS011;11729;50.836;4.330;2024-03-25T01:02:12;23.42;;;15.02;;
23119;SDS011;11729;50.836;4.330;2024-03-25T01:04:38;21.15;;;14.82;;
23119;SDS011;11729;50.836;4.330;2024-03-25T01:07:03;17.77;;;14.57;;
23119;SDS011;11729;50.836;4.330;2024-03-25T01:09:29;18.45;;;14.55;;
23119;SDS011;11729;50.836;4.330;2024-03-25T01:11:55;19.70;;;14.25;;
23119;SDS011;11729;50.836;4.330;2024-03-25T01:14:21;20.15;;;14.63;;
23119;SDS011;11729;50.836;4.330;2024-03-25T01:16:47;25.65;;;15.68;;
23119;SDS011;11729;50.836;4.330;2024-03-25T01:19:13;22.45;;;15.13;;
23119;SDS011;11729;50.836;4.330;2024-03-25T01:21:38;24.13;;;14.70;;
23119;SDS011;11729;50.836;4.330;2024-03-25T01:24:04;27.00;;;16.10;;
23119;SDS011;11729;50.836;4.330;2024-03-25T01:26:30;23.17;;;14.27;;
23119;SDS011;11729;50.836;4.330;2024-03-25T01:28:56;16.42;;;14.55;;
23119;SDS011;11729;50.836;4.330;2024-03-25T01:31:23;19.25;;;14.00;;
23119;SDS011;11729;50.836;4.330;2024-03-25T01:33:49;20.95;;;15.05;;
23119;SDS011;11729;50.836;4.330;2024-03-25T01:36:16;21.63;;;15.18;;
23119;SDS011;11729;50.836;4.330;2024-03-25T01:38:43;21.85;;;14.27;;
23119;SDS011;11729;50.836;4.330;2024-03-25T01:41:09;22.73;;;14.75;;
23119;SDS011;11729;50.836;4.330;2024-03-25T01:43:36;23.02;;;14.43;;
23119;SDS011;11729;50.836;4.330;2024-03-25T01:46:02;19.65;;;14.77;;
23119;SDS011;11729;50.836;4.330;2024-03-25T01:48:28;20.00;;;14.75;;
23119;SDS011;11729;50.836;4.330;2024-03-25T01:50:54;18.60;;;14.23;;
23119;SDS011;11729;50.836;4.330;2024-03-25T01:53:21;20.63;;;14.33;;
23119;SDS011;11729;50.836;4.330;2024-03-25T01:55:48;21.75;;;14.85;;
23119;SDS011;11729;50.836;4.330;2024-03-25T01:58:16;18.50;;;14.27;;
23119;SDS011;11729;50.836;4.330;2024-03-25T02:00:42;19.60;;;14.32;;
23119;SDS011;11729;50.836;4.330;2024-03-25T02:03:09;22.17;;;14.43;;
23119;SDS011;11729;50.836;4.330;2024-03-25T02:05:35;17.50;;;14.52;;
23119;SDS011;11729;50.836;4.330;2024-03-25T02:08:03;19.00;;;14.80;;
23119;SDS011;11729;50.836;4.330;2024-03-25T02:10:29;21.70;;;15.27;;
23119;SDS011;11729;50.836;4.330;2024-03-25T02:12:56;17.67;;;14.93;;
23119;SDS011;11729;50.836;4.330;2024-03-25T02:15:21;20.02;;;14.35;;
23119;SDS011;11729;50.836;4.330;2024-03-25T02:17:47;21.90;;;14.75;;
23119;SDS011;11729;50.836;4.330;2024-03-25T02:20:13;23.02;;;14.75;;
23119;SDS011;11729;50.836;4.330;2024-03-25T02:22:41;25.60;;;14.98;;
23119;SDS011;11729;50.836;4.330;2024-03-25T02:25:08;23.27;;;14.85;;
23119;SDS011;11729;50.836;4.330;2024-03-25T02:27:35;23.33;;;15.70;;
23119;SDS011;11729;50.836;4.330;2024-03-25T02:30:03;20.63;;;14.50;;
23119;SDS011;11729;50.836;4.330;2024-03-25T02:32:31;23.30;;;14.85;;
23119;SDS011;11729;50.836;4.330;2024-03-25T02:34:57;21.08;;;15.20;;
23119;SDS011;11729;50.836;4.330;2024-03-25T02:37:23;22.83;;;14.40;;
23119;SDS011;11729;50.836;4.330;2024-03-25T02:39:49;23.55;;;14.77;;
23119;SDS011;11729;50.836;4.330;2024-03-25T02:42:15;20.90;;;13.63;;
23119;SDS011;11729;50.836;4.330;2024-03-25T02:44:41;24.98;;;14.63;;
23119;SDS011;11729;50.836;4.330;2024-03-25T02:47:08;26.20;;;15.00;;
23119;SDS011;11729;50.836;4.330;2024-03-25T02:49:34;25.65;;;14.90;;
23119;SDS011;11729;50.836;4.330;2024-03-25T02:52:00;23.33;;;14.25;;
23119;SDS011;11729;50.836;4.330;2024-03-25T02:54:26;27.65;;;15.07;;
23119;SDS011;11729;50.836;4.330;2024-03-25T02:56:52;26.83;;;14.98;;
23119;SDS011;11729;50.836;4.330;2024-03-25T02:59:18;22.10;;;14.35;;
23119;SDS011;11729;50.836;4.330;2024-03-25T03:01:43;25.60;;;15.45;;
23119;SDS011;11729;50.836;4.330;2024-03-25T03:04:10;30.15;;;16.70;;
23119;SDS011;11729;50.836;4.330;2024-03-25T03:06:35;23.58;;;15.35;;
23119;SDS011;11729;50.836;4.330;2024-03-25T03:09:01;27.83;;;15.60;;
23119;SDS011;11729;50.836;4.330;2024-03-25T03:11:27;28.15;;;15.35;;
23119;SDS011;11729;50.836;4.330;2024-03-25T03:13:52;25.42;;;16.08;;
23119;SDS011;11729;50.836;4.330;2024-03-25T03:16:18;23.15;;;15.65;;
23119;SDS011;11729;50.836;4.330;2024-03-25T03:18:43;26.30;;;15.55;;
23119;SDS011;11729;50.836;4.330;2024-03-25T03:21:09;29.15;;;15.65;;
23119;SDS011;11729;50.836;4.330;2024-03-25T03:23:35;36.08;;;16.55;;
23119;SDS011;11729;50.836;4.330;2024-03-25T03:26:00;32.80;;;16.00;;
23119;SDS011;11729;50.836;4.330;2024-03-25T03:28:26;31.38;;;16.17;;
23119;SDS011;11729;50.836;4.330;2024-03-25T03:30:53;29.77;;;16.85;;
23119;SDS011;11729;50.836;4.330;2024-03-25T03:33:19;39.67;;;17.35;;
23119;SDS011;11729;50.836;4.330;2024-03-25T03:35:46;27.50;;;16.00;;
23119;SDS011;11729;50.836;4.330;2024-03-25T03:38:11;29.75;;;17.17;;
23119;SDS011;11729;50.836;4.330;2024-03-25T03:40:37;29.65;;;16.20;;
23119;SDS011;11729;50.836;4.330;2024-03-25T03:43:03;32.58;;;17.08;;
23119;SDS011;11729;50.836;4.330;2024-03-25T03:45:32;41.17;;;17.67;;
23119;SDS011;11729;50.836;4.330;2024-03-25T03:47:59;44.55;;;18.65;;
23119;SDS011;11729;50.836;4.330;2024-03-25T03:50:25;36.08;;;18.67;;
23119;SDS011;11729;50.836;4.330;2024-03-25T03:52:50;33.95;;;18.40;;
23119;SDS011;11729;50.836;4.330;2024-03-25T03:55:16;37.20;;;18.77;;
23119;SDS011;11729;50.836;4.330;2024-03-25T03:57:42;46.97;;;19.45;;
23119;SDS011;11729;50.836;4.330;2024-03-25T04:00:08;44.13;;;19.20;;
23119;SDS011;11729;50.836;4.330;2024-03-25T04:02:36;41.38;;;19.10;;
23119;SDS011;11729;50.836;4.330;2024-03-25T04:05:03;35.83;;;18.15;;
23119;SDS011;11729;50.836;4.330;2024-03-25T04:07:31;42.53;;;19.35;;
23119;SDS011;11729;50.836;4.330;2024-03-25T04:09:57;46.90;;;19.58;;
23119;SDS011;11729;50.836;4.330;2024-03-25T04:12:24;39.03;;;19.13;;
23119;SDS011;11729;50.836;4.330;2024-03-25T04:14:50;41.53;;;19.08;;
23119;SDS011;11729;50.836;4.330;2024-03-25T04:17:21;47.25;;;19.35;;
23119;SDS011;11729;50.836;4.330;2024-03-25T04:19:50;43.43;;;20.17;;
23119;SDS011;11729;50.836;4.330;2024-03-25T04:22:16;38.00;;;19.20;;
23119;SDS011;11729;50.836;4.330;2024-03-25T04:24:45;53.63;;;20.70;;
23119;SDS011;11729;50.836;4.330;2024-03-25T04:27:11;43.33;;;20.08;;
23119;SDS011;11729;50.836;4.330;2024-03-25T04:29:36;49.25;;;21.77;;
23119;SDS011;11729;50.836;4.330;2024-03-25T04:32:02;45.25;;;20.70;;
23119;SDS011;11729;50.836;4.330;2024-03-25T04:34:28;48.85;;;21.15;;
23119;SDS011;11729;50.836;4.330;2024-03-25T04:36:54;47.90;;;21.48;;
23119;SDS011;11729;50.836;4.330;2024-03-25T04:39:20;49.88;;;21.55;;
23119;SDS011;11729;50.836;4.330;2024-03-25T04:41:47;45.90;;;20.75;;
23119;SDS011;11729;50.836;4.330;2024-03-25T04:44:12;45.15;;;22.65;;
23119;SDS011;11729;50.836;4.330;2024-03-25T04:46:39;46.85;;;20.92;;
23119;SDS011;11729;50.836;4.330;2024-03-25T04:49:04;54.90;;;21.67;;
23119;SDS011;11729;50.836;4.330;2024-03-25T04:51:30;52.47;;;21.88;;
23119;SDS011;11729;50.836;4.330;2024-03-25T04:53:56;47.45;;;22.63;;
23119;SDS011;11729;50.836;4.330;2024-03-25T04:56:22;54.92;;;22.10;;
23119;SDS011;11729;50.836;4.330;2024-03-25T04:58:48;56.13;;;22.80;;
23119;SDS011;11729;50.836;4.330;2024-03-25T05:01:14;52.38;;;22.65;;
23119;SDS011;11729;50.836;4.330;2024-03-25T05:03:40;47.22;;;23.30;;
23119;SDS011;11729;50.836;4.330;2024-03-25T05:06:07;50.92;;;23.45;;
23119;SDS011;11729;50.836;4.330;2024-03-25T05:08:36;52.92;;;23.05;;
23119;SDS011;11729;50.836;4.330;2024-03-25T05:11:02;51.50;;;23.02;;
23119;SDS011;11729;50.836;4.330;2024-03-25T05:13:27;57.28;;;24.27;;
23119;SDS011;11729;50.836;4.330;2024-03-25T05:15:53;61.85;;;23.95;;
23119;SDS011;11729;50.836;4.330;2024-03-25T05:18:18;53.60;;;23.55;;
23119;SDS011;11729;50.836;4.330;2024-03-25T05:20:44;60.78;;;24.17;;
23119;SDS011;11729;50.836;4.330;2024-03-25T05:23:10;57.03;;;25.95;;
23119;SDS011;11729;50.836;4.330;2024-03-25T05:25:36;61.08;;;24.25;;
23119;SDS011;11729;50.836;4.330;2024-03-25T05:28:03;59.47;;;26.98;;
23119;SDS011;11729;50.836;4.330;2024-03-25T05:30:29;62.58;;;24.77;;
23119;SDS011;11729;50.836;4.330;2024-03-25T05:32:55;68.97;;;26.23;;
23119;SDS011;11729;50.836;4.330;2024-03-25T05:35:20;68.57;;;26.38;;
23119;SDS011;11729;50.836;4.330;2024-03-25T05:37:46;61.90;;;25.83;;
23119;SDS011;11729;50.836;4.330;2024-03-25T05:40:13;73.82;;;28.52;;
23119;SDS011;11729;50.836;4.330;2024-03-25T05:42:40;73.93;;;28.15;;
23119;SDS011;11729;50.836;4.330;2024-03-25T05:45:06;75.22;;;28.02;;
23119;SDS011;11729;50.836;4.330;2024-03-25T05:47:32;80.35;;;34.65;;
23119;SDS011;11729;50.836;4.330;2024-03-25T05:49:57;91.78;;;31.40;;
23119;SDS011;11729;50.836;4.330;2024-03-25T05:52:23;82.22;;;29.40;;
23119;SDS011;11729;50.836;4.330;2024-03-25T05:54:48;74.65;;;28.00;;
23119;SDS011;11729;50.836;4.330;2024-03-25T05:57:14;81.72;;;29.15;;
23119;SDS011;11729;50.836;4.330;2024-03-25T05:59:40;77.43;;;28.23;;
23119;SDS011;11729;50.836;4.330;2024-03-25T06:02:06;76.25;;;28.55;;
23119;SDS011;11729;50.836;4.330;2024-03-25T06:04:32;68.18;;;26.95;;
23119;SDS011;11729;50.836;4.330;2024-03-25T06:06:57;69.93;;;28.20;;
23119;SDS011;11729;50.836;4.330;2024-03-25T06:09:23;83.38;;;28.42;;
23119;SDS011;11729;50.836;4.330;2024-03-25T06:11:49;73.32;;;28.00;;
23119;SDS011;11729;50.836;4.330;2024-03-25T06:14:14;67.00;;;27.08;;
23119;SDS011;11729;50.836;4.330;2024-03-25T06:16:41;65.90;;;26.05;;
23119;SDS011;11729;50.836;4.330;2024-03-25T06:19:08;75.95;;;27.20;;
23119;SDS011;11729;50.836;4.330;2024-03-25T06:21:33;66.60;;;26.92;;
23119;SDS011;11729;50.836;4.330;2024-03-25T06:24:01;66.97;;;26.45;;
23119;SDS011;11729;50.836;4.330;2024-03-25T06:26:27;64.22;;;26.35;;
23119;SDS011;11729;50.836;4.330;2024-03-25T06:28:53;68.90;;;26.10;;
23119;SDS011;11729;50.836;4.330;2024-03-25T06:31:20;64.03;;;26.25;;
23119;SDS011;11729;50.836;4.330;2024-03-25T06:34:04;60.10;;;24.90;;
23119;SDS011;11729;50.836;4.330;2024-03-25T06:36:46;58.45;;;26.02;;
23119;SDS011;11729;50.836;4.330;2024-03-25T06:39:13;65.00;;;27.33;;
23119;SDS011;11729;50.836;4.330;2024-03-25T06:41:39;59.15;;;24.73;;
23119;SDS011;11729;50.836;4.330;2024-03-25T06:44:04;55.05;;;23.60;;
23119;SDS011;11729;50.836;4.330;2024-03-25T06:46:30;55.17;;;24.15;;
23119;SDS011;11729;50.836;4.330;2024-03-25T06:48:56;51.97;;;24.60;;
23119;SDS011;11729;50.836;4.330;2024-03-25T06:51:23;46.95;;;24.80;;
23119;SDS011;11729;50.836;4.330;2024-03-25T06:53:48;60.53;;;25.10;;
23119;SDS011;11729;50.836;4.330;2024-03-25T06:56:14;64.18;;;27.85;;
23119;SDS011;11729;50.836;4.330;2024-03-25T06:58:40;51.65;;;25.98;;
23119;SDS011;11729;50.836;4.330;2024-03-25T07:01:07;43.45;;;22.45;;
23119;SDS011;11729;50.836;4.330;2024-03-25T07:03:33;43.33;;;22.15;;
23119;SDS011;11729;50.836;4.330;2024-03-25T07:06:00;45.88;;;19.98;;
23119;SDS011;11729;50.836;4.330;2024-03-25T07:08:26;41.53;;;19.63;;
23119;SDS011;11729;50.836;4.330;2024-03-25T07:10:53;48.20;;;18.75;;
23119;SDS011;11729;50.836;4.330;2024-03-25T07:13:19;35.30;;;18.50;;
23119;SDS011;11729;50.836;4.330;2024-03-25T07:15:46;38.75;;;18.25;;
23119;SDS011;11729;50.836;4.330;2024-03-25T07:18:12;32.50;;;15.80;;
23119;SDS011;11729;50.836;4.330;2024-03-25T07:20:39;36.15;;;16.60;;
23119;SDS011;11729;50.836;4.330;2024-03-25T07:23:05;34.05;;;16.75;;
23119;SDS011;11729;50.836;4.330;2024-03-25T07:25:31;33.15;;;15.73;;
23119;SDS011;11729;50.836;4.330;2024-03-25T07:27:58;29.08;;;15.02;;
23119;SDS011;11729;50.836;4.330;2024-03-25T07:30:24;30.95;;;15.30;;
23119;SDS011;11729;50.836;4.330;2024-03-25T07:32:56;23.52;;;13.98;;
23119;SDS011;11729;50.836;4.330;2024-03-25T07:35:26;26.83;;;13.68;;
23119;SDS011;11729;50.836;4.330;2024-03-25T07:37:51;21.70;;;12.05;;
23119;SDS011;11729;50.836;4.330;2024-03-25T07:40:18;27.05;;;12.70;;
23119;SDS011;11729;50.836;4.330;2024-03-25T07:42:44;30.95;;;13.00;;
23119;SDS011;11729;50.836;4.330;2024-03-25T07:45:09;28.02;;;12.32;;
23119;SDS011;11729;50.836;4.330;2024-03-25T07:47:35;22.75;;;11.60;;
23119;SDS011;11729;50.836;4.330;2024-03-25T07:50:01;25.80;;;11.70;;
23119;SDS011;11729;50.836;4.330;2024-03-25T07:52:27;21.40;;;11.90;;
23119;SDS011;11729;50.836;4.330;2024-03-25T07:54:55;22.60;;;11.70;;
23119;SDS011;11729;50.836;4.330;2024-03-25T07:57:21;30.88;;;12.40;;
23119;SDS011;11729;50.836;4.330;2024-03-25T07:59:48;17.80;;;11.23;;
23119;SDS011;11729;50.836;4.330;2024-03-25T08:02:14;24.23;;;11.63;;
23119;SDS011;11729;50.836;4.330;2024-03-25T08:04:40;22.05;;;11.60;;
23119;SDS011;11729;50.836;4.330;2024-03-25T08:07:06;19.50;;;10.77;;
23119;SDS011;11729;50.836;4.330;2024-03-25T08:09:32;19.13;;;11.27;;
23119;SDS011;11729;50.836;4.330;2024-03-25T08:11:57;24.27;;;11.25;;
23119;SDS011;11729;50.836;4.330;2024-03-25T08:14:23;24.15;;;11.98;;
23119;SDS011;11729;50.836;4.330;2024-03-25T08:16:49;18.52;;;11.15;;
23119;SDS011;11729;50.836;4.330;2024-03-25T08:19:16;24.08;;;10.82;;
23119;SDS011;11729;50.836;4.330;2024-03-25T08:21:42;20.02;;;10.35;;
23119;SDS011;11729;50.836;4.330;2024-03-25T08:24:09;17.48;;;10.70;;
23119;SDS011;11729;50.836;4.330;2024-03-25T08:26:34;19.67;;;10.10;;
23119;SDS011;11729;50.836;4.330;2024-03-25T08:29:00;19.23;;;10.45;;
23119;SDS011;11729;50.836;4.330;2024-03-25T08:31:25;18.83;;;10.70;;
23119;SDS011;11729;50.836;4.330;2024-03-25T08:33:51;20.35;;;11.05;;
23119;SDS011;11729;50.836;4.330;2024-03-25T08:36:17;19.05;;;10.55;;
23119;SDS011;11729;50.836;4.330;2024-03-25T08:38:46;20.67;;;10.43;;
23119;SDS011;11729;50.836;4.330;2024-03-25T08:41:11;17.55;;;10.23;;
23119;SDS011;11729;50.836;4.330;2024-03-25T08:43:37;19.67;;;10.85;;
23119;SDS011;11729;50.836;4.330;2024-03-25T08:46:02;16.52;;;10.75;;
23119;SDS011;11729;50.836;4.330;2024-03-25T08:48:29;16.00;;;10.10;;
23119;SDS011;11729;50.836;4.330;2024-03-25T08:50:55;26.30;;;9.80;;
23119;SDS011;11729;50.836;4.330;2024-03-25T08:53:20;20.80;;;9.90;;
23119;SDS011;11729;50.836;4.330;2024-03-25T08:55:46;20.17;;;10.13;;
23119;SDS011;11729;50.836;4.330;2024-03-25T08:58:13;22.85;;;9.95;;
23119;SDS011;11729;50.836;4.330;2024-03-25T09:00:40;18.80;;;10.20;;
23119;SDS011;11729;50.836;4.330;2024-03-25T09:03:06;17.83;;;9.38;;
23119;SDS011;11729;50.836;4.330;2024-03-25T09:05:31;15.10;;;9.40;;
23119;SDS011;11729;50.836;4.330;2024-03-25T09:07:58;14.65;;;9.35;;
23119;SDS011;11729;50.836;4.330;2024-03-25T09:10:25;19.10;;;9.85;;
23119;SDS011;11729;50.836;4.330;2024-03-25T09:13:09;19.73;;;10.13;;
23119;SDS011;11729;50.836;4.330;2024-03-25T09:15:37;14.43;;;9.75;;
23119;SDS011;11729;50.836;4.330;2024-03-25T09:18:03;17.80;;;9.95;;
23119;SDS011;11729;50.836;4.330;2024-03-25T09:20:28;17.55;;;10.38;;
23119;SDS011;11729;50.836;4.330;2024-03-25T09:22:54;25.40;;;10.48;;
23119;SDS011;11729;50.836;4.330;2024-03-25T09:25:20;19.80;;;9.93;;
23119;SDS011;11729;50.836;4.330;2024-03-25T09:27:48;19.73;;;10.00;;
23119;SDS011;11729;50.836;4.330;2024-03-25T09:30:15;17.52;;;9.23;;
23119;SDS011;11729;50.836;4.330;2024-03-25T09:32:41;15.35;;;10.02;;
23119;SDS011;11729;50.836;4.330;2024-03-25T09:35:10;15.52;;;8.98;;
23119;SDS011;11729;50.836;4.330;2024-03-25T09:37:36;16.67;;;9.02;;
23119;SDS011;11729;50.836;4.330;2024-03-25T09:40:03;14.93;;;9.70;;
23119;SDS011;11729;50.836;4.330;2024-03-25T09:42:36;16.65;;;9.93;;
23119;SDS011;11729;50.836;4.330;2024-03-25T09:45:09;20.38;;;9.60;;
23119;SDS011;11729;50.836;4.330;2024-03-25T09:47:36;15.50;;;9.55;;
23119;SDS011;11729;50.836;4.330;2024-03-25T09:50:04;13.90;;;9.40;;
23119;SDS011;11729;50.836;4.330;2024-03-25T09:52:33;18.55;;;9.40;;
23119;SDS011;11729;50.836;4.330;2024-03-25T09:54:59;12.68;;;8.50;;
23119;SDS011;11729;50.836;4.330;2024-03-25T09:57:25;15.15;;;8.73;;
23119;SDS011;11729;50.836;4.330;2024-03-25T09:59:52;14.40;;;9.25;;
23119;SDS011;11729;50.836;4.330;2024-03-25T10:02:18;14.90;;;9.23;;
23119;SDS011;11729;50.836;4.330;2024-03-25T10:04:45;14.05;;;9.23;;
23119;SDS011;11729;50.836;4.330;2024-03-25T10:07:21;17.35;;;8.95;;
23119;SDS011;11729;50.836;4.330;2024-03-25T10:09:49;16.92;;;9.43;;
23119;SDS011;11729;50.836;4.330;2024-03-25T10:12:15;12.30;;;8.23;;
23119;SDS011;11729;50.836;4.330;2024-03-25T10:14:41;17.02;;;8.80;;
23119;SDS011;11729;50.836;4.330;2024-03-25T10:17:07;17.75;;;9.27;;
23119;SDS011;11729;50.836;4.330;2024-03-25T10:19:33;16.98;;;8.80;;
23119;SDS011;11729;50.836;4.330;2024-03-25T10:22:05;10.88;;;8.02;;
23119;SDS011;11729;50.836;4.330;2024-03-25T10:27:10;13.50;;;8.88;;
23119;SDS011;11729;50.836;4.330;2024-03-25T10:29:51;12.52;;;7.85;;
23119;SDS011;11729;50.836;4.330;2024-03-25T10:32:18;18.20;;;7.70;;
23119;SDS011;11729;50.836;4.330;2024-03-25T10:34:43;13.52;;;7.30;;
23119;SDS011;11729;50.836;4.330;2024-03-25T10:37:09;11.25;;;7.57;;
23119;SDS011;11729;50.836;4.330;2024-03-25T10:39:39;8.65;;;7.07;;
23119;SDS011;11729;50.836;4.330;2024-03-25T10:42:18;10.98;;;6.75;;
23119;SDS011;11729;50.836;4.330;2024-03-25T10:44:45;9.00;;;6.18;;
23119;SDS011;11729;50.836;4.330;2024-03-25T10:47:14;9.35;;;6.30;;
23119;SDS011;11729;50.836;4.330;2024-03-25T10:49:57;11.65;;;6.47;;
23119;SDS011;11729;50.836;4.330;2024-03-25T10:52:34;13.40;;;6.95;;
23119;SDS011;11729;50.836;4.330;2024-03-25T10:55:02;18.65;;;9.60;;
23119;SDS011;11729;50.836;4.330;2024-03-25T10:57:28;12.43;;;6.53;;
23119;SDS011;11729;50.836;4.330;2024-03-25T10:59:55;14.77;;;7.68;;
23119;SDS011;11729;50.836;4.330;2024-03-25T11:02:22;11.52;;;6.45;;
23119;SDS011;11729;50.836;4.330;2024-03-25T11:04:48;10.20;;;6.22;;
23119;SDS011;11729;50.836;4.330;2024-03-25T11:07:16;9.60;;;6.50;;
23119;SDS011;11729;50.836;4.330;2024-03-25T11:09:42;16.95;;;6.47;;
23119;SDS011;11729;50.836;4.330;2024-03-25T11:12:11;15.73;;;6.50;;
23119;SDS011;11729;50.836;4.330;2024-03-25T11:14:39;9.40;;;6.47;;
23119;SDS011;11729;50.836;4.330;2024-03-25T11:17:15;9.75;;;6.15;;
23119;SDS011;11729;50.836;4.330;2024-03-25T11:19:41;11.88;;;5.60;;
23119;SDS011;11729;50.836;4.330;2024-03-25T11:22:07;12.63;;;5.60;;
23119;SDS011;11729;50.836;4.330;2024-03-25T11:27:07;10.32;;;5.82;;
23119;SDS011;11729;50.836;4.330;2024-03-25T11:29:33;7.40;;;5.60;;
23119;SDS011;11729;50.836;4.330;2024-03-25T11:32:00;10.30;;;5.95;;
23119;SDS011;11729;50.836;4.330;2024-03-25T11:34:29;7.95;;;5.57;;
23119;SDS011;11729;50.836;4.330;2024-03-25T11:36:55;8.40;;;5.22;;
23119;SDS011;11729;50.836;4.330;2024-03-25T11:39:22;6.50;;;4.97;;
23119;SDS011;11729;50.836;4.330;2024-03-25T11:41:48;9.50;;;5.50;;
23119;SDS011;11729;50.836;4.330;2024-03-25T11:44:14;7.82;;;5.53;;
23119;SDS011;11729;50.836;4.330;2024-03-25T11:49:14;8.45;;;5.40;;
23119;SDS011;11729;50.836;4.330;2024-03-25T11:51:43;9.55;;;5.38;;
23119;SDS011;11729;50.836;4.330;2024-03-25T11:54:12;8.32;;;5.40;;
23119;SDS011;11729;50.836;4.330;2024-03-25T11:56:38;6.95;;;5.40;;
23119;SDS011;11729;50.836;4.330;2024-03-25T11:59:04;6.47;;;5.50;;
23119;SDS011;11729;50.836;4.330;2024-03-25T12:01:31;7.30;;;5.57;;
23119;SDS011;11729;50.836;4.330;2024-03-25T12:03:57;6.18;;;5.57;;
23119;SDS011;11729;50.836;4.330;2024-03-25T12:06:34;9.35;;;5.50;;
23119;SDS011;11729;50.836;4.330;2024-03-25T12:09:00;9.07;;;6.15;;
23119;SDS011;11729;50.836;4.330;2024-03-25T12:11:44;11.88;;;6.13;;
23119;SDS011;11729;50.836;4.330;2024-03-25T12:14:10;7.20;;;6.10;;
23119;SDS011;11729;50.836;4.330;2024-03-25T12:16:36;9.05;;;6.30;;
23119;SDS011;11729;50.836;4.330;2024-03-25T12:19:02;8.75;;;6.05;;
23119;SDS011;11729;50.836;4.330;2024-03-25T12:21:27;7.72;;;6.03;;
23119;SDS011;11729;50.836;4.330;2024-03-25T12:23:53;7.57;;;6.03;;
23119;SDS011;11729;50.836;4.330;2024-03-25T12:26:19;8.80;;;6.35;;
23119;SDS011;11729;50.836;4.330;2024-03-25T12:28:45;11.23;;;5.65;;
23119;SDS011;11729;50.836;4.330;2024-03-25T12:31:11;7.22;;;5.20;;
23119;SDS011;11729;50.836;4.330;2024-03-25T12:33:41;10.68;;;5.40;;
23119;SDS011;11729;50.836;4.330;2024-03-25T12:36:07;5.47;;;4.85;;
23119;SDS011;11729;50.836;4.330;2024-03-25T12:38:33;8.65;;;5.15;;
23119;SDS011;11729;50.836;4.330;2024-03-25T12:41:11;6.05;;;4.85;;
23119;SDS011;11729;50.836;4.330;2024-03-25T12:43:43;6.38;;;4.85;;
23119;SDS011;11729;50.836;4.330;2024-03-25T12:46:10;6.35;;;4.75;;
23119;SDS011;11729;50.836;4.330;2024-03-25T12:48:37;6.10;;;4.40;;
23119;SDS011;11729;50.836;4.330;2024-03-25T12:51:03;6.07;;;4.50;;
23119;SDS011;11729;50.836;4.330;2024-03-25T12:53:29;7.22;;;4.72;;
23119;SDS011;11729;50.836;4.330;2024-03-25T12:55:55;7.93;;;4.80;;
23119;SDS011;11729;50.836;4.330;2024-03-25T12:58:21;6.53;;;4.82;;
23119;SDS011;11729;50.836;4.330;2024-03-25T13:00:46;7.43;;;5.05;;
23119;SDS011;11729;50.836;4.330;2024-03-25T13:03:12;6.50;;;4.60;;
23119;SDS011;11729;50.836;4.330;2024-03-25T13:05:38;7.00;;;5.20;;
23119;SDS011;11729;50.836;4.330;2024-03-25T13:08:05;6.75;;;4.88;;
23119;SDS011;11729;50.836;4.330;2024-03-25T13:10:31;7.50;;;5.10;;
23119;SDS011;11729;50.836;4.330;2024-03-25T13:12:57;5.90;;;4.80;;
23119;SDS011;11729;50.836;4.330;2024-03-25T13:15:24;5.55;;;5.00;;
23119;SDS011;11729;50.836;4.330;2024-03-25T13:17:49;8.10;;;4.95;;
23119;SDS011;11729;50.836;4.330;2024-03-25T13:20:15;5.65;;;4.80;;
23119;SDS011;11729;50.836;4.330;2024-03-25T13:22:41;5.20;;;4.60;;
23119;SDS011;11729;50.836;4.330;2024-03-25T13:25:08;6.57;;;4.70;;
23119;SDS011;11729;50.836;4.330;2024-03-25T13:27:34;5.85;;;5.35;;
23119;SDS011;11729;50.836;4.330;2024-03-25T13:30:00;6.40;;;5.20;;
23119;SDS011;11729;50.836;4.330;2024-03-25T13:32:25;5.90;;;5.00;;
23119;SDS011;11729;50.836;4.330;2024-03-25T13:34:51;6.38;;;5.10;;
23119;SDS011;11729;50.836;4.330;2024-03-25T13:37:16;5.68;;;5.18;;
23119;SDS011;11729;50.836;4.330;2024-03-25T13:39:42;5.38;;;4.88;;
23119;SDS011;11729;50.836;4.330;2024-03-25T13:42:09;7.75;;;5.07;;
23119;SDS011;11729;50.836;4.330;2024-03-25T13:44:34;8.10;;;5.00;;
23119;SDS011;11729;50.836;4.330;2024-03-25T13:47:00;6.95;;;4.78;;
23119;SDS011;11729;50.836;4.330;2024-03-25T13:49:25;5.78;;;4.78;;
23119;SDS011;11729;50.836;4.330;2024-03-25T13:51:55;7.18;;;4.70;;
23119;SDS011;11729;50.836;4.330;2024-03-25T13:54:22;5.43;;;4.93;;
23119;SDS011;11729;50.836;4.330;2024-03-25T13:56:47;8.15;;;5.55;;
23119;SDS011;11729;50.836;4.330;2024-03-25T13:59:13;5.50;;;4.90;;
23119;SDS011;11729;50.836;4.330;2024-03-25T14:01:39;5.07;;;4.65;;
23119;SDS011;11729;50.836;4.330;2024-03-25T14:04:05;7.53;;;4.80;;
23119;SDS011;11729;50.836;4.330;2024-03-25T14:06:31;6.65;;;5.43;;
23119;SDS011;11729;50.836;4.330;2024-03-25T14:08:59;8.90;;;6.80;;
23119;SDS011;11729;50.836;4.330;2024-03-25T14:11:25;6.97;;;5.38;;
23119;SDS011;11729;50.836;4.330;2024-03-25T14:13:51;6.05;;;4.88;;
23119;SDS011;11729;50.836;4.330;2024-03-25T14:16:18;5.90;;;5.30;;
23119;SDS011;11729;50.836;4.330;2024-03-25T14:18:44;6.70;;;5.57;;
23119;SDS011;11729;50.836;4.330;2024-03-25T14:21:10;5.55;;;5.00;;
23119;SDS011;11729;50.836;4.330;2024-03-25T14:23:36;9.10;;;5.70;;
23119;SDS011;11729;50.836;4.330;2024-03-25T14:26:01;6.90;;;5.10;;
23119;SDS011;11729;50.836;4.330;2024-03-25T14:28:27;7.32;;;5.32;;
23119;SDS011;11729;50.836;4.330;2024-03-25T14:30:53;6.53;;;5.22;;
23119;SDS011;11729;50.836;4.330;2024-03-25T14:33:19;6.95;;;5.20;;